createdAt,value
2017-07-26T00:02:41.172Z,4
2017-07-26T00:02:51.345Z,4
2017-07-26T00:03:51.620Z,4
2017-07-26T00:04:51.553Z,4
2017-07-26T00:05:51.502Z,4
2017-07-26T00:06:51.449Z,4
2017-07-26T00:07:51.719Z,4
2017-07-26T00:08:51.311Z,4
2017-07-26T00:09:51.246Z,4
2017-07-26T00:10:51.179Z,4
2017-07-26T00:11:51.727Z,4
2017-07-26T00:12:51.222Z,4
2017-07-26T00:13:50.994Z,4
2017-07-26T00:14:50.609Z,4
2017-07-26T00:15:50.875Z,4
2017-07-26T00:16:50.809Z,4
2017-07-26T00:17:50.899Z,4
2017-07-26T00:18:50.690Z,4
2017-07-26T00:19:50.298Z,4
2017-07-26T00:20:50.565Z,4
2017-07-26T00:21:50.503Z,4
2017-07-26T00:22:50.410Z,4
2017-07-26T00:23:50.384Z,4
2017-07-26T00:24:49.990Z,4
2017-07-26T00:25:50.257Z,4
2017-07-26T00:26:50.401Z,4
2017-07-26T00:27:50.149Z,4
2017-07-26T00:28:50.072Z,4
2017-07-26T00:29:50.213Z,4
2017-07-26T00:30:49.966Z,4
2017-07-26T00:31:49.887Z,4
2017-07-26T00:32:50.032Z,4
2017-07-26T00:33:49.769Z,4
2017-07-26T00:34:49.903Z,4
2017-07-26T00:35:49.644Z,4
2017-07-26T00:36:49.782Z,4
2017-07-26T00:37:49.516Z,4
2017-07-26T00:38:49.608Z,4
2017-07-26T00:39:49.389Z,4
2017-07-26T00:40:49.334Z,4
2017-07-26T00:41:49.277Z,4
2017-07-26T00:42:49.204Z,4
2017-07-26T00:43:49.293Z,4
2017-07-26T00:44:49.087Z,4
2017-07-26T00:45:49.021Z,4
2017-07-26T00:46:48.967Z,4
2017-07-26T00:47:48.897Z,4
2017-07-26T00:48:48.988Z,4
2017-07-26T00:49:48.777Z,4
2017-07-26T00:50:48.716Z,4
2017-07-26T00:51:48.656Z,4
2017-07-26T00:52:48.588Z,4
2017-07-26T00:53:48.626Z,4
2017-07-26T00:54:48.465Z,4
2017-07-26T00:55:48.411Z,4
2017-07-26T00:56:48.348Z,4
2017-07-26T00:57:48.283Z,4
2017-07-26T00:58:48.233Z,4
2017-07-26T00:59:48.174Z,4
2017-07-26T01:00:47.766Z,4
2017-07-26T01:01:48.039Z,4
2017-07-26T01:02:47.971Z,4
2017-07-26T01:03:47.915Z,4
2017-07-26T01:04:47.849Z,4
2017-07-26T01:05:47.933Z,4
2017-07-26T01:06:47.407Z,4
2017-07-26T01:07:47.665Z,4
2017-07-26T01:08:47.844Z,4
2017-07-26T01:09:47.544Z,4
2017-07-26T01:10:47.636Z,4
2017-07-26T01:11:47.415Z,4
2017-07-26T01:12:47.356Z,4
2017-07-26T01:13:47.290Z,4
2017-07-26T01:14:47.231Z,4
2017-07-26T01:15:47.424Z,4
2017-07-26T01:16:47.114Z,4
2017-07-26T01:17:46.720Z,4
2017-07-26T01:18:46.655Z,4
2017-07-26T01:19:46.590Z,4
2017-07-26T01:20:47.012Z,4
2017-07-26T01:21:46.797Z,4
2017-07-26T01:22:46.740Z,4
2017-07-26T01:23:46.680Z,4
2017-07-26T01:24:46.608Z,4
2017-07-26T01:25:46.373Z,4
2017-07-26T01:26:46.486Z,4
2017-07-26T01:27:46.428Z,4
2017-07-26T01:28:46.391Z,4
2017-07-26T01:29:46.309Z,4
2017-07-26T01:30:46.645Z,4
2017-07-26T01:31:46.205Z,4
2017-07-26T01:32:46.119Z,4
2017-07-26T01:33:46.054Z,4
2017-07-26T01:34:45.665Z,4
2017-07-26T01:35:46.289Z,4
2017-07-26T01:36:45.874Z,4
2017-07-26T01:37:45.808Z,4
2017-07-26T01:38:45.420Z,4
2017-07-26T01:39:45.686Z,4
2017-07-26T01:40:46.033Z,4
2017-07-26T01:41:45.566Z,4
2017-07-26T01:42:45.498Z,4
2017-07-26T01:43:45.446Z,4
2017-07-26T01:44:45.383Z,4
2017-07-26T01:45:45.102Z,4
2017-07-26T01:46:45.281Z,4
2017-07-26T01:47:45.395Z,4
2017-07-26T01:48:44.804Z,4
2017-07-26T01:49:44.743Z,4
2017-07-26T01:50:45.000Z,4
2017-07-26T01:51:44.943Z,4
2017-07-26T01:52:44.885Z,4
2017-07-26T01:53:44.822Z,4
2017-07-26T01:54:44.762Z,4
2017-07-26T01:55:44.699Z,4
2017-07-26T01:56:44.636Z,4
2017-07-26T01:57:44.573Z,4
2017-07-26T01:58:44.188Z,4
2017-07-26T01:59:44.448Z,4
2017-07-26T02:00:44.391Z,4
2017-07-26T02:01:44.333Z,4
2017-07-26T02:02:44.462Z,4
2017-07-26T02:03:44.210Z,4
2017-07-26T02:04:44.141Z,4
2017-07-26T02:05:44.176Z,4
2017-07-26T02:06:44.017Z,4
2017-07-26T02:07:43.955Z,4
2017-07-26T02:08:43.563Z,4
2017-07-26T02:09:43.833Z,4
2017-07-26T02:10:43.773Z,4
2017-07-26T02:11:44.913Z,4
2017-07-26T02:12:43.646Z,4
2017-07-26T02:13:43.602Z,4
2017-07-26T02:14:43.524Z,4
2017-07-26T02:15:43.462Z,4
2017-07-26T02:16:43.399Z,4
2017-07-26T02:17:43.339Z,4
2017-07-26T02:18:43.274Z,4
2017-07-26T02:19:42.889Z,4
2017-07-26T02:20:43.252Z,4
2017-07-26T02:21:43.094Z,4
2017-07-26T02:22:43.026Z,4
2017-07-26T02:23:42.965Z,4
2017-07-26T02:24:42.917Z,4
2017-07-26T02:25:42.847Z,4
2017-07-26T02:26:42.792Z,4
2017-07-26T02:27:42.726Z,4
2017-07-26T02:28:42.658Z,4
2017-07-26T02:29:42.596Z,4
2017-07-26T02:30:42.543Z,4
2017-07-26T02:31:42.476Z,4
2017-07-26T02:32:42.414Z,4
2017-07-26T02:33:42.355Z,4
2017-07-26T02:34:42.286Z,4
2017-07-26T02:35:42.235Z,4
2017-07-26T02:36:41.832Z,4
2017-07-26T02:37:42.105Z,4
2017-07-26T02:38:42.039Z,4
2017-07-26T02:39:41.992Z,4
2017-07-26T02:40:41.920Z,4
2017-07-26T02:41:41.853Z,4
2017-07-26T02:42:41.793Z,4
2017-07-26T02:43:41.731Z,4
2017-07-26T02:44:41.339Z,4
2017-07-26T02:45:41.759Z,4
2017-07-26T02:46:41.548Z,4
2017-07-26T02:47:41.167Z,4
2017-07-26T02:48:41.423Z,4
2017-07-26T02:49:41.030Z,4
2017-07-26T02:50:41.406Z,4
2017-07-26T02:51:40.910Z,4
2017-07-26T02:52:41.176Z,4
2017-07-26T02:53:40.791Z,4
2017-07-26T02:54:41.050Z,4
2017-07-26T02:55:40.992Z,4
2017-07-26T02:56:40.928Z,4
2017-07-26T02:57:40.866Z,4
2017-07-26T02:58:40.476Z,4
2017-07-26T02:59:40.746Z,4
2017-07-26T03:00:40.683Z,4
2017-07-26T03:01:40.624Z,4
2017-07-26T03:02:40.558Z,4
2017-07-26T03:03:40.493Z,4
2017-07-26T03:04:40.106Z,4
2017-07-26T03:05:40.038Z,4
2017-07-26T03:06:39.983Z,4
2017-07-26T03:07:40.250Z,4
2017-07-26T03:08:39.859Z,4
2017-07-26T03:09:39.802Z,4
2017-07-26T03:10:40.061Z,4
2017-07-26T03:11:40.005Z,4
2017-07-26T03:12:39.939Z,4
2017-07-26T03:13:39.874Z,4
2017-07-26T03:14:39.812Z,4
2017-07-26T03:15:39.903Z,4
2017-07-26T03:16:39.690Z,4
2017-07-26T03:17:39.628Z,4
2017-07-26T03:18:39.568Z,4
2017-07-26T03:19:39.509Z,4
2017-07-26T03:20:39.444Z,4
2017-07-26T03:21:39.378Z,4
2017-07-26T03:22:38.990Z,4
2017-07-26T03:23:39.261Z,4
2017-07-26T03:24:38.867Z,4
2017-07-26T03:25:39.133Z,4
2017-07-26T03:26:39.071Z,4
2017-07-26T03:27:39.014Z,4
2017-07-26T03:28:38.945Z,4
2017-07-26T03:29:38.891Z,4
2017-07-26T03:30:38.502Z,4
2017-07-26T03:31:38.763Z,4
2017-07-26T03:32:38.702Z,4
2017-07-26T03:33:37.979Z,4
2017-07-26T03:34:38.577Z,8
2017-07-26T03:35:38.515Z,8
2017-07-26T03:36:38.450Z,8
2017-07-26T03:37:38.392Z,8
2017-07-26T03:38:38.337Z,8
2017-07-26T03:39:38.267Z,8
2017-07-26T03:40:38.206Z,4
2017-07-26T03:41:38.148Z,4
2017-07-26T03:42:37.756Z,4
2017-07-26T03:43:38.021Z,4
2017-07-26T03:44:37.957Z,4
2017-07-26T03:45:37.898Z,4
2017-07-26T03:46:37.832Z,4
2017-07-26T03:47:37.773Z,4
2017-07-26T03:48:37.379Z,4
2017-07-26T03:49:37.664Z,4
2017-07-26T03:50:37.600Z,4
2017-07-26T03:51:37.535Z,4
2017-07-26T03:52:37.465Z,4
2017-07-26T03:53:37.402Z,4
2017-07-26T03:54:37.014Z,4
2017-07-26T03:55:36.964Z,4
2017-07-26T03:56:37.229Z,4
2017-07-26T03:57:37.151Z,4
2017-07-26T03:58:37.097Z,4
2017-07-26T03:59:37.028Z,4
2017-07-26T04:00:36.975Z,4
2017-07-26T04:01:36.911Z,4
2017-07-26T04:02:36.840Z,4
2017-07-26T04:03:36.455Z,4
2017-07-26T04:04:36.717Z,4
2017-07-26T04:05:36.329Z,8
2017-07-26T04:06:36.594Z,8
2017-07-26T04:07:36.540Z,8
2017-07-26T04:08:36.469Z,8
2017-07-26T04:09:36.410Z,8
2017-07-26T04:10:36.349Z,8
2017-07-26T04:11:35.961Z,8
2017-07-26T04:12:36.242Z,8
2017-07-26T04:13:36.164Z,8
2017-07-26T04:14:36.098Z,8
2017-07-26T04:15:36.036Z,8
2017-07-26T04:16:36.000Z,8
2017-07-26T04:17:35.913Z,8
2017-07-26T04:18:35.854Z,8
2017-07-26T04:19:35.790Z,8
2017-07-26T04:20:35.727Z,8
2017-07-26T04:21:35.674Z,8
2017-07-26T04:22:35.279Z,8
2017-07-26T04:23:35.547Z,4
2017-07-26T04:24:35.491Z,8
2017-07-26T04:25:35.423Z,8
2017-07-26T04:26:35.358Z,8
2017-07-26T04:27:34.971Z,4
2017-07-26T04:28:35.243Z,8
2017-07-26T04:29:34.844Z,8
2017-07-26T04:30:35.109Z,8
2017-07-26T04:31:35.054Z,8
2017-07-26T04:32:34.987Z,8
2017-07-26T04:33:34.596Z,8
2017-07-26T04:34:34.867Z,8
2017-07-26T04:35:34.805Z,8
2017-07-26T04:36:34.741Z,8
2017-07-26T04:37:34.675Z,8
2017-07-26T04:38:34.614Z,8
2017-07-26T04:39:34.557Z,8
2017-07-26T04:40:34.165Z,8
2017-07-26T04:41:34.431Z,8
2017-07-26T04:42:34.367Z,8
2017-07-26T04:43:34.306Z,8
2017-07-26T04:44:34.254Z,8
2017-07-26T04:45:33.859Z,8
2017-07-26T04:46:33.794Z,8
2017-07-26T04:47:33.728Z,8
2017-07-26T04:48:34.005Z,8
2017-07-26T04:49:34.147Z,8
2017-07-26T04:50:33.877Z,8
2017-07-26T04:51:33.811Z,8
2017-07-26T04:52:33.420Z,4
2017-07-26T04:53:33.688Z,4
2017-07-26T04:54:33.629Z,4
2017-07-26T04:55:33.566Z,4
2017-07-26T04:56:33.508Z,8
2017-07-26T04:57:33.453Z,8
2017-07-26T04:58:33.376Z,8
2017-07-26T04:59:33.313Z,8
2017-07-26T05:00:32.927Z,8
2017-07-26T05:01:33.193Z,8
2017-07-26T05:02:33.139Z,8
2017-07-26T05:03:33.067Z,8
2017-07-26T05:04:33.007Z,8
2017-07-26T05:05:32.943Z,8
2017-07-26T05:06:32.897Z,8
2017-07-26T05:07:32.822Z,8
2017-07-26T05:08:32.758Z,8
2017-07-26T05:09:32.371Z,8
2017-07-26T05:10:32.670Z,8
2017-07-26T05:11:32.248Z,8
2017-07-26T05:12:32.189Z,8
2017-07-26T05:13:32.649Z,8
2017-07-26T05:14:32.386Z,8
2017-07-26T05:15:32.004Z,8
2017-07-26T05:16:31.941Z,8
2017-07-26T05:17:32.203Z,8
2017-07-26T05:18:32.140Z,12
2017-07-26T05:19:32.283Z,12
2017-07-26T05:20:31.704Z,12
2017-07-26T05:21:31.952Z,8
2017-07-26T05:22:31.893Z,8
2017-07-26T05:23:31.175Z,8
2017-07-26T05:24:31.772Z,8
2017-07-26T05:25:31.711Z,8
2017-07-26T05:26:31.679Z,8
2017-07-26T05:27:31.249Z,8
2017-07-26T05:28:31.522Z,8
2017-07-26T05:29:31.460Z,8
2017-07-26T05:30:31.395Z,8
2017-07-26T05:31:31.336Z,8
2017-07-26T05:32:30.948Z,8
2017-07-26T05:33:31.216Z,8
2017-07-26T05:34:31.154Z,8
2017-07-26T05:35:30.759Z,8
2017-07-26T05:36:31.024Z,8
2017-07-26T05:37:30.966Z,8
2017-07-26T05:38:30.898Z,12
2017-07-26T05:39:30.846Z,12
2017-07-26T05:40:30.788Z,12
2017-07-26T05:41:30.391Z,16
2017-07-26T05:42:30.652Z,12
2017-07-26T05:43:30.650Z,16
2017-07-26T05:44:30.221Z,12
2017-07-26T05:45:30.138Z,16
2017-07-26T05:46:30.078Z,12
2017-07-26T05:47:30.349Z,12
2017-07-26T05:48:29.959Z,12
2017-07-26T05:49:30.222Z,16
2017-07-26T05:50:30.162Z,12
2017-07-26T05:51:30.097Z,12
2017-07-26T05:52:30.046Z,16
2017-07-26T05:53:30.217Z,16
2017-07-26T05:54:29.910Z,20
2017-07-26T05:55:29.520Z,16
2017-07-26T05:56:29.461Z,20
2017-07-26T05:57:29.068Z,16
2017-07-26T05:58:29.334Z,16
2017-07-26T05:59:29.269Z,16
2017-07-26T06:00:29.448Z,20
2017-07-26T06:01:29.487Z,16
2017-07-26T06:02:29.420Z,16
2017-07-26T06:03:30.439Z,16
2017-07-26T06:04:29.292Z,16
2017-07-26T06:05:29.430Z,12
2017-07-26T06:06:29.896Z,12
2017-07-26T06:07:28.773Z,12
2017-07-26T06:08:29.043Z,12
2017-07-26T06:09:28.980Z,12
2017-07-26T06:10:28.919Z,8
2017-07-26T06:11:28.527Z,12
2017-07-26T06:12:28.468Z,12
2017-07-26T06:13:28.737Z,8
2017-07-26T06:14:28.677Z,8
2017-07-26T06:15:28.811Z,8
2017-07-26T06:16:28.565Z,8
2017-07-26T06:17:28.480Z,8
2017-07-26T06:18:28.432Z,8
2017-07-26T06:19:28.365Z,12
2017-07-26T06:20:28.305Z,12
2017-07-26T06:21:28.239Z,12
2017-07-26T06:22:28.176Z,12
2017-07-26T06:23:28.120Z,12
2017-07-26T06:24:28.054Z,12
2017-07-26T06:25:27.991Z,12
2017-07-26T06:26:27.928Z,12
2017-07-26T06:27:27.743Z,12
2017-07-26T06:28:29.181Z,12
2017-07-26T06:29:27.745Z,12
2017-07-26T06:30:27.699Z,12
2017-07-26T06:31:27.633Z,16
2017-07-26T06:32:27.763Z,16
2017-07-26T06:33:27.740Z,16
2017-07-26T06:34:27.106Z,16
2017-07-26T06:35:27.371Z,16
2017-07-26T06:36:27.310Z,16
2017-07-26T06:37:26.920Z,12
2017-07-26T06:38:27.387Z,12
2017-07-26T06:39:27.129Z,12
2017-07-26T06:40:27.079Z,12
2017-07-26T06:41:27.049Z,8
2017-07-26T06:42:26.986Z,8
2017-07-26T06:43:26.922Z,12
2017-07-26T06:44:26.567Z,12
2017-07-26T06:45:26.759Z,8
2017-07-26T06:46:26.030Z,8
2017-07-26T06:47:26.297Z,12
2017-07-26T06:48:26.235Z,12
2017-07-26T06:49:26.507Z,8
2017-07-26T06:50:26.475Z,12
2017-07-26T06:51:26.389Z,8
2017-07-26T06:52:26.324Z,12
2017-07-26T06:53:26.258Z,8
2017-07-26T06:54:25.537Z,8
2017-07-26T06:55:26.136Z,12
2017-07-26T06:56:26.073Z,12
2017-07-26T06:57:26.011Z,12
2017-07-26T06:58:25.949Z,20
2017-07-26T06:59:25.888Z,20
2017-07-26T07:00:25.822Z,20
2017-07-26T07:01:25.439Z,20
2017-07-26T07:02:25.369Z,20
2017-07-26T07:03:25.308Z,20
2017-07-26T07:04:25.243Z,20
2017-07-26T07:05:25.185Z,16
2017-07-26T07:06:25.467Z,20
2017-07-26T07:07:25.069Z,24
2017-07-26T07:08:25.328Z,16
2017-07-26T07:09:25.265Z,20
2017-07-26T07:10:24.879Z,20
2017-07-26T07:11:24.815Z,24
2017-07-26T07:12:25.082Z,20
2017-07-26T07:13:24.688Z,24
2017-07-26T07:14:24.626Z,24
2017-07-26T07:15:24.245Z,20
2017-07-26T07:16:24.514Z,20
2017-07-26T07:17:24.442Z,24
2017-07-26T07:18:24.047Z,24
2017-07-26T07:19:24.338Z,24
2017-07-26T07:20:24.587Z,24
2017-07-26T07:21:24.526Z,28
2017-07-26T07:22:24.460Z,28
2017-07-26T07:23:24.146Z,24
2017-07-26T07:24:24.317Z,32
2017-07-26T07:25:24.300Z,24
2017-07-26T07:26:24.218Z,28
2017-07-26T07:27:24.151Z,32
2017-07-26T07:28:24.087Z,28
2017-07-26T07:29:24.034Z,28
2017-07-26T07:30:23.999Z,28
2017-07-26T07:31:23.900Z,28
2017-07-26T07:32:23.844Z,28
2017-07-26T07:33:23.780Z,156
2017-07-26T07:34:23.061Z,204
2017-07-26T07:35:23.663Z,216
2017-07-26T07:36:23.633Z,220
2017-07-26T07:37:23.529Z,220
2017-07-26T07:38:23.470Z,220
2017-07-26T07:39:23.074Z,220
2017-07-26T07:40:23.024Z,216
2017-07-26T07:41:23.280Z,216
2017-07-26T07:42:23.234Z,216
2017-07-26T07:43:23.161Z,212
2017-07-26T07:44:23.102Z,216
2017-07-26T07:45:23.040Z,216
2017-07-26T07:46:22.639Z,216
2017-07-26T07:47:22.910Z,216
2017-07-26T07:48:22.854Z,212
2017-07-26T07:49:22.505Z,216
2017-07-26T07:50:22.720Z,212
2017-07-26T07:51:22.666Z,216
2017-07-26T07:52:22.599Z,216
2017-07-26T07:53:22.212Z,216
2017-07-26T07:54:22.473Z,212
2017-07-26T07:55:22.412Z,216
2017-07-26T07:56:22.347Z,212
2017-07-26T07:57:22.282Z,220
2017-07-26T07:58:22.223Z,216
2017-07-26T07:59:22.040Z,204
2017-07-26T08:00:21.783Z,208
2017-07-26T08:01:22.037Z,212
2017-07-26T08:02:21.976Z,216
2017-07-26T08:03:21.911Z,216
2017-07-26T08:04:21.848Z,212
2017-07-26T08:05:21.792Z,216
2017-07-26T08:06:21.746Z,212
2017-07-26T08:07:21.340Z,216
2017-07-26T08:08:21.602Z,208
2017-07-26T08:09:21.534Z,212
2017-07-26T08:10:21.152Z,212
2017-07-26T08:11:21.288Z,208
2017-07-26T08:12:21.351Z,208
2017-07-26T08:13:21.293Z,208
2017-07-26T08:14:20.896Z,212
2017-07-26T08:15:21.164Z,212
2017-07-26T08:16:21.101Z,208
2017-07-26T08:17:21.042Z,208
2017-07-26T08:18:20.656Z,208
2017-07-26T08:19:20.589Z,212
2017-07-26T08:20:20.534Z,208
2017-07-26T08:21:20.790Z,212
2017-07-26T08:22:20.729Z,208
2017-07-26T08:23:20.671Z,216
2017-07-26T08:24:20.620Z,212
2017-07-26T08:25:20.553Z,208
2017-07-26T08:26:20.493Z,212
2017-07-26T08:27:20.423Z,212
2017-07-26T08:28:20.357Z,212
2017-07-26T08:29:20.303Z,216
2017-07-26T08:30:19.581Z,212
2017-07-26T08:31:20.182Z,212
2017-07-26T08:32:20.108Z,216
2017-07-26T08:33:20.050Z,212
2017-07-26T08:34:19.993Z,208
2017-07-26T08:35:19.277Z,212
2017-07-26T08:36:19.862Z,212
2017-07-26T08:37:19.804Z,212
2017-07-26T08:38:19.738Z,212
2017-07-26T08:39:19.684Z,208
2017-07-26T08:40:19.753Z,212
2017-07-26T08:41:19.555Z,208
2017-07-26T08:42:19.494Z,208
2017-07-26T08:43:19.433Z,212
2017-07-26T08:44:19.369Z,208
2017-07-26T08:45:19.337Z,208
2017-07-26T08:46:19.253Z,208
2017-07-26T08:47:19.182Z,212
2017-07-26T08:48:19.131Z,212
2017-07-26T08:49:19.065Z,212
2017-07-26T08:50:18.998Z,212
2017-07-26T08:51:19.138Z,212
2017-07-26T08:52:18.955Z,212
2017-07-26T08:53:18.578Z,212
2017-07-26T08:54:18.480Z,212
2017-07-26T08:55:18.695Z,212
2017-07-26T08:56:18.665Z,212
2017-07-26T08:57:18.571Z,212
2017-07-26T08:58:18.522Z,212
2017-07-26T08:59:17.789Z,208
2017-07-26T09:00:18.388Z,212
2017-07-26T09:01:18.326Z,212
2017-07-26T09:02:17.970Z,212
2017-07-26T09:03:17.877Z,216
2017-07-26T09:04:18.141Z,212
2017-07-26T09:05:18.083Z,216
2017-07-26T09:06:18.017Z,216
2017-07-26T09:07:17.958Z,212
2017-07-26T09:08:17.893Z,216
2017-07-26T09:09:17.836Z,220
2017-07-26T09:10:17.775Z,212
2017-07-26T09:11:17.382Z,220
2017-07-26T09:12:17.661Z,216
2017-07-26T09:13:17.722Z,216
2017-07-26T09:14:17.240Z,212
2017-07-26T09:15:17.474Z,212
2017-07-26T09:16:17.408Z,212
2017-07-26T09:17:17.382Z,216
2017-07-26T09:18:17.357Z,216
2017-07-26T09:19:17.219Z,212
2017-07-26T09:20:17.304Z,212
2017-07-26T09:21:17.098Z,212
2017-07-26T09:22:17.038Z,216
2017-07-26T09:23:16.980Z,212
2017-07-26T09:24:16.581Z,212
2017-07-26T09:25:16.726Z,216
2017-07-26T09:26:16.462Z,212
2017-07-26T09:27:16.409Z,216
2017-07-26T09:28:16.339Z,216
2017-07-26T09:29:16.606Z,216
2017-07-26T09:30:16.191Z,224
2017-07-26T09:31:16.173Z,36
2017-07-26T09:32:16.419Z,36
2017-07-26T09:33:16.365Z,32
2017-07-26T09:34:16.306Z,36
2017-07-26T09:35:16.608Z,36
2017-07-26T09:36:16.250Z,32
2017-07-26T09:37:15.841Z,32
2017-07-26T09:38:16.166Z,28
2017-07-26T09:39:16.004Z,32
2017-07-26T09:40:15.936Z,32
2017-07-26T09:41:15.883Z,28
2017-07-26T09:42:15.876Z,28
2017-07-26T09:43:15.753Z,28
2017-07-26T09:44:15.363Z,28
2017-07-26T09:45:15.302Z,28
2017-07-26T09:46:14.901Z,24
2017-07-26T09:47:15.500Z,32
2017-07-26T09:48:15.437Z,28
2017-07-26T09:49:15.049Z,32
2017-07-26T09:50:14.989Z,32
2017-07-26T09:51:15.271Z,32
2017-07-26T09:52:14.869Z,32
2017-07-26T09:53:15.134Z,32
2017-07-26T09:54:14.738Z,28
2017-07-26T09:55:14.680Z,28
2017-07-26T09:56:14.949Z,28
2017-07-26T09:57:14.893Z,32
2017-07-26T09:58:14.824Z,32
2017-07-26T09:59:14.765Z,32
2017-07-26T10:00:14.945Z,32
2017-07-26T10:01:14.646Z,28
2017-07-26T10:02:14.588Z,28
2017-07-26T10:03:14.194Z,32
2017-07-26T10:04:14.128Z,32
2017-07-26T10:05:14.070Z,32
2017-07-26T10:06:14.331Z,32
2017-07-26T10:07:14.276Z,32
2017-07-26T10:08:13.896Z,28
2017-07-26T10:09:14.155Z,28
2017-07-26T10:10:13.781Z,24
2017-07-26T10:11:14.030Z,28
2017-07-26T10:12:13.961Z,24
2017-07-26T10:13:13.903Z,24
2017-07-26T10:14:12.850Z,24
2017-07-26T10:15:13.780Z,20
2017-07-26T10:16:13.735Z,24
2017-07-26T10:17:13.669Z,24
2017-07-26T10:18:13.305Z,24
2017-07-26T10:19:13.536Z,24
2017-07-26T10:20:13.143Z,24
2017-07-26T10:21:13.083Z,24
2017-07-26T10:22:13.016Z,28
2017-07-26T10:23:13.292Z,24
2017-07-26T10:24:13.225Z,28
2017-07-26T10:25:12.505Z,28
2017-07-26T10:26:13.113Z,32
2017-07-26T10:27:13.043Z,28
2017-07-26T10:28:12.984Z,36
2017-07-26T10:29:12.918Z,36
2017-07-26T10:30:12.540Z,28
2017-07-26T10:31:12.797Z,28
2017-07-26T10:32:12.745Z,32
2017-07-26T10:33:12.675Z,36
2017-07-26T10:34:12.616Z,36
2017-07-26T10:35:12.551Z,28
2017-07-26T10:36:11.834Z,32
2017-07-26T10:37:12.105Z,32
2017-07-26T10:38:12.053Z,28
2017-07-26T10:39:12.551Z,32
2017-07-26T10:40:11.940Z,32
2017-07-26T10:41:11.855Z,32
2017-07-26T10:42:12.129Z,32
2017-07-26T10:43:11.731Z,32
2017-07-26T10:44:12.014Z,28
2017-07-26T10:45:11.615Z,28
2017-07-26T10:46:11.874Z,28
2017-07-26T10:47:11.499Z,32
2017-07-26T10:48:11.760Z,32
2017-07-26T10:49:11.692Z,32
2017-07-26T10:50:11.304Z,32
2017-07-26T10:51:11.251Z,24
2017-07-26T10:52:11.515Z,28
2017-07-26T10:53:11.457Z,28
2017-07-26T10:54:11.388Z,28
2017-07-26T10:55:11.623Z,24
2017-07-26T10:56:10.602Z,28
2017-07-26T10:57:11.197Z,24
2017-07-26T10:58:11.138Z,24
2017-07-26T10:59:11.074Z,28
2017-07-26T11:00:10.691Z,28
2017-07-26T11:01:10.625Z,24
2017-07-26T11:02:10.565Z,12
2017-07-26T11:03:10.508Z,12
2017-07-26T11:04:10.445Z,8
2017-07-26T11:05:10.709Z,12
2017-07-26T11:06:10.657Z,12
2017-07-26T11:07:10.600Z,12
2017-07-26T11:08:10.522Z,12
2017-07-26T11:09:10.133Z,12
2017-07-26T11:10:10.416Z,12
2017-07-26T11:11:10.339Z,8
2017-07-26T11:12:10.283Z,12
2017-07-26T11:13:09.899Z,12
2017-07-26T11:14:09.826Z,12
2017-07-26T11:15:10.105Z,8
2017-07-26T11:16:09.381Z,16
2017-07-26T11:17:09.974Z,16
2017-07-26T11:18:09.912Z,12
2017-07-26T11:19:09.535Z,12
2017-07-26T11:20:09.864Z,12
2017-07-26T11:21:09.730Z,12
2017-07-26T11:22:09.705Z,12
2017-07-26T11:23:09.607Z,12
2017-07-26T11:24:09.549Z,12
2017-07-26T11:25:09.483Z,8
2017-07-26T11:26:09.432Z,12
2017-07-26T11:27:09.368Z,12
2017-07-26T11:28:09.307Z,12
2017-07-26T11:29:09.241Z,12
2017-07-26T11:30:08.857Z,12
2017-07-26T11:31:08.781Z,12
2017-07-26T11:32:08.720Z,12
2017-07-26T11:33:08.663Z,12
2017-07-26T11:34:08.935Z,12
2017-07-26T11:35:08.867Z,12
2017-07-26T11:36:08.865Z,12
2017-07-26T11:37:08.739Z,12
2017-07-26T11:38:08.352Z,12
2017-07-26T11:39:08.635Z,12
2017-07-26T11:40:08.228Z,8
2017-07-26T11:41:08.188Z,12
2017-07-26T11:42:08.106Z,12
2017-07-26T11:43:08.388Z,8
2017-07-26T11:44:08.311Z,8
2017-07-26T11:45:08.256Z,12
2017-07-26T11:46:08.195Z,8
2017-07-26T11:47:08.123Z,8
2017-07-26T11:48:07.732Z,8
2017-07-26T11:49:08.007Z,8
2017-07-26T11:50:07.611Z,8
2017-07-26T11:51:07.560Z,8
2017-07-26T11:52:07.822Z,8
2017-07-26T11:53:07.772Z,16
2017-07-26T11:54:07.695Z,16
2017-07-26T11:55:07.884Z,16
2017-07-26T11:56:07.247Z,16
2017-07-26T11:57:07.518Z,16
2017-07-26T11:58:07.460Z,16
2017-07-26T11:59:07.393Z,148
2017-07-26T12:00:07.334Z,192
2017-07-26T12:01:07.264Z,200
2017-07-26T12:02:07.203Z,200
2017-07-26T12:03:07.150Z,200
2017-07-26T12:04:07.077Z,204
2017-07-26T12:05:07.035Z,196
2017-07-26T12:06:06.963Z,200
2017-07-26T12:07:06.897Z,196
2017-07-26T12:08:06.521Z,196
2017-07-26T12:09:06.439Z,196
2017-07-26T12:10:06.710Z,196
2017-07-26T12:11:06.318Z,200
2017-07-26T12:12:06.594Z,200
2017-07-26T12:13:06.533Z,196
2017-07-26T12:14:05.824Z,200
2017-07-26T12:15:06.405Z,196
2017-07-26T12:16:06.337Z,192
2017-07-26T12:17:05.949Z,196
2017-07-26T12:18:06.220Z,196
2017-07-26T12:19:06.158Z,192
2017-07-26T12:20:06.093Z,192
2017-07-26T12:21:06.029Z,196
2017-07-26T12:22:05.968Z,192
2017-07-26T12:23:05.602Z,196
2017-07-26T12:24:05.871Z,196
2017-07-26T12:25:05.459Z,196
2017-07-26T12:26:05.732Z,192
2017-07-26T12:27:05.660Z,192
2017-07-26T12:28:05.607Z,192
2017-07-26T12:29:05.541Z,192
2017-07-26T12:30:05.478Z,192
2017-07-26T12:31:05.417Z,192
2017-07-26T12:32:05.359Z,192
2017-07-26T12:33:05.293Z,188
2017-07-26T12:34:04.910Z,192
2017-07-26T12:35:04.993Z,192
2017-07-26T12:36:04.781Z,188
2017-07-26T12:37:05.048Z,192
2017-07-26T12:38:04.988Z,192
2017-07-26T12:39:04.930Z,192
2017-07-26T12:40:04.542Z,192
2017-07-26T12:41:04.809Z,192
2017-07-26T12:42:04.756Z,188
2017-07-26T12:43:04.023Z,192
2017-07-26T12:44:04.631Z,188
2017-07-26T12:45:04.563Z,192
2017-07-26T12:46:04.531Z,192
2017-07-26T12:47:04.447Z,188
2017-07-26T12:48:04.381Z,188
2017-07-26T12:49:04.003Z,188
2017-07-26T12:50:03.940Z,184
2017-07-26T12:51:04.202Z,188
2017-07-26T12:52:03.477Z,188
2017-07-26T12:53:04.086Z,188
2017-07-26T12:54:04.022Z,188
2017-07-26T12:55:03.626Z,192
2017-07-26T12:56:03.896Z,188
2017-07-26T12:57:03.503Z,192
2017-07-26T12:58:03.775Z,188
2017-07-26T12:59:03.377Z,192
2017-07-26T13:00:03.656Z,192
2017-07-26T13:01:03.258Z,192
2017-07-26T13:02:03.192Z,192
2017-07-26T13:03:03.462Z,192
2017-07-26T13:04:03.409Z,168
2017-07-26T13:05:03.341Z,188
2017-07-26T13:06:03.307Z,192
2017-07-26T13:07:03.224Z,192
2017-07-26T13:08:02.834Z,192
2017-07-26T13:09:03.182Z,8
2017-07-26T13:10:03.172Z,8
2017-07-26T13:11:02.708Z,8
2017-07-26T13:12:02.960Z,8
2017-07-26T13:13:02.854Z,8
2017-07-26T13:14:02.137Z,8
2017-07-26T13:15:02.730Z,8
2017-07-26T13:16:02.666Z,8
2017-07-26T13:17:02.275Z,8
2017-07-26T13:18:02.219Z,8
2017-07-26T13:19:02.494Z,8
2017-07-26T13:20:02.444Z,8
2017-07-26T13:21:02.369Z,12
2017-07-26T13:22:02.299Z,8
2017-07-26T13:23:01.648Z,12
2017-07-26T13:24:01.870Z,12
2017-07-26T13:25:02.225Z,12
2017-07-26T13:26:03.256Z,12
2017-07-26T13:27:01.997Z,12
2017-07-26T13:28:01.934Z,12
2017-07-26T13:29:01.876Z,12
2017-07-26T13:30:01.968Z,8
2017-07-26T13:31:01.750Z,8
2017-07-26T13:32:01.686Z,8
2017-07-26T13:33:01.666Z,8
2017-07-26T13:34:01.563Z,12
2017-07-26T13:35:01.175Z,8
2017-07-26T13:36:01.464Z,8
2017-07-26T13:37:01.054Z,8
2017-07-26T13:38:00.995Z,8
2017-07-26T13:39:01.266Z,8
2017-07-26T13:40:01.199Z,8
2017-07-26T13:41:01.150Z,12
2017-07-26T13:42:00.743Z,12
2017-07-26T13:43:00.686Z,12
2017-07-26T13:44:00.963Z,8
2017-07-26T13:45:00.560Z,8
2017-07-26T13:46:00.835Z,12
2017-07-26T13:47:00.768Z,12
2017-07-26T13:48:00.710Z,12
2017-07-26T13:49:00.644Z,8
2017-07-26T13:50:00.588Z,12
2017-07-26T13:51:00.524Z,8
2017-07-26T13:52:00.463Z,8
2017-07-26T13:53:00.413Z,8
2017-07-26T13:54:00.338Z,8
2017-07-26T13:55:00.276Z,8
2017-07-26T13:56:00.214Z,8
2017-07-26T13:57:00.163Z,8
2017-07-26T13:58:00.097Z,8
2017-07-26T13:59:00.032Z,12
2017-07-26T13:59:59.989Z,8
2017-07-26T14:00:59.920Z,8
2017-07-26T14:01:59.852Z,12
2017-07-26T14:02:59.469Z,8
2017-07-26T14:03:59.724Z,12
2017-07-26T14:04:59.663Z,8
2017-07-26T14:05:59.282Z,8
2017-07-26T14:06:59.556Z,12
2017-07-26T14:07:59.498Z,12
2017-07-26T14:08:59.085Z,12
2017-07-26T14:09:59.030Z,12
2017-07-26T14:10:59.291Z,12
2017-07-26T14:11:58.906Z,8
2017-07-26T14:12:58.851Z,12
2017-07-26T14:13:59.106Z,12
2017-07-26T14:14:59.045Z,8
2017-07-26T14:15:58.340Z,8
2017-07-26T14:16:58.925Z,12
2017-07-26T14:17:58.864Z,12
2017-07-26T14:18:58.812Z,8
2017-07-26T14:19:58.740Z,8
2017-07-26T14:20:58.677Z,8
2017-07-26T14:21:58.616Z,12
2017-07-26T14:22:57.897Z,8
2017-07-26T14:23:58.524Z,8